createdAt,value
2022-12-15T00:03:12.342Z,21.10
2022-12-15T00:08:27.152Z,17.17
2022-12-15T00:13:39.452Z,15.30
2022-12-15T00:18:52.054Z,17.33
2022-12-15T00:24:06.642Z,18.47
2022-12-15T00:29:20.501Z,18.77
2022-12-15T00:34:35.896Z,17.10
2022-12-15T00:39:32.052Z,18.70
2022-12-15T00:44:25.867Z,18.87
2022-12-15T00:49:42.062Z,22.20
2022-12-15T00:54:58.087Z,20.63
2022-12-15T01:00:14.844Z,18.07
2022-12-15T01:05:34.499Z,16.10
2022-12-15T01:10:57.060Z,16.03
2022-12-15T01:16:08.082Z,17.67
2022-12-15T01:25:58.353Z,26.50
2022-12-15T01:30:52.786Z,29.10
2022-12-15T01:35:46.959Z,31.90
2022-12-15T01:40:47.539Z,35.63
2022-12-15T01:50:50.994Z,38.13
2022-12-15T01:55:49.709Z,41.37
2022-12-15T02:00:43.715Z,42.60
2022-12-15T02:05:38.072Z,47.80
2022-12-15T02:10:39.031Z,40.30
2022-12-15T02:15:39.791Z,48.30
2022-12-15T02:20:49.346Z,45.87
2022-12-15T02:26:01.576Z,44.73
2022-12-15T02:31:22.698Z,42.47
2022-12-15T02:36:26.740Z,42.60
2022-12-15T02:41:38.257Z,44.87
2022-12-15T02:46:42.747Z,41.60
2022-12-15T02:51:46.287Z,45.43
2022-12-15T02:56:47.428Z,47.80
2022-12-15T03:01:48.218Z,55.07
2022-12-15T03:06:44.033Z,70.43
2022-12-15T03:11:38.328Z,74.33
2022-12-15T03:16:31.645Z,70.00
2022-12-15T03:21:26.416Z,69.40
2022-12-15T03:26:19.746Z,51.93
2022-12-15T03:31:13.051Z,43.67
2022-12-15T03:36:06.678Z,45.10
2022-12-15T03:41:01.421Z,46.53
2022-12-15T03:45:54.892Z,46.27
2022-12-15T03:50:50.172Z,42.43
2022-12-15T03:55:44.050Z,37.47
2022-12-15T04:00:39.640Z,40.83
2022-12-15T04:05:35.253Z,41.37
2022-12-15T04:10:34.466Z,38.63
2022-12-15T04:15:29.216Z,46.33
2022-12-15T04:20:24.987Z,60.27
2022-12-15T04:25:37.932Z,57.03
2022-12-15T04:30:49.619Z,59.60
2022-12-15T04:36:01.802Z,48.37
2022-12-15T04:41:12.507Z,47.53
2022-12-15T04:46:23.580Z,43.33
2022-12-15T04:56:46.912Z,46.13
2022-12-15T05:02:02.654Z,48.20
2022-12-15T05:07:14.547Z,52.23
2022-12-15T05:12:25.845Z,64.60
2022-12-15T05:17:41.420Z,50.97
2022-12-15T05:22:53.818Z,44.53
2022-12-15T05:28:04.799Z,44.10
2022-12-15T05:32:58.271Z,41.65
2022-12-15T05:37:53.621Z,39.60
2022-12-15T05:42:49.980Z,42.77
2022-12-15T05:47:44.135Z,43.03
2022-12-15T05:52:37.612Z,41.57
2022-12-15T05:57:32.324Z,33.90
2022-12-15T06:02:25.579Z,34.37
2022-12-15T06:07:19.331Z,35.60
2022-12-15T06:12:12.704Z,30.97
2022-12-15T06:17:07.578Z,30.97
2022-12-15T06:22:00.847Z,34.97
2022-12-15T06:26:54.091Z,38.23
2022-12-15T06:31:47.999Z,31.50
2022-12-15T06:36:43.176Z,48.77
2022-12-15T06:41:38.827Z,33.70
2022-12-15T06:46:35.131Z,35.57
2022-12-15T06:51:33.383Z,35.57
2022-12-15T06:56:33.603Z,33.80
2022-12-15T07:01:28.272Z,30.97
2022-12-15T07:06:22.251Z,32.60
2022-12-15T07:11:15.564Z,35.03
2022-12-15T07:16:12.874Z,33.63
2022-12-15T07:21:08.177Z,29.67
2022-12-15T07:26:09.594Z,31.90
2022-12-15T07:31:05.853Z,48.40
2022-12-15T07:36:00.787Z,37.47
2022-12-15T07:40:54.515Z,32.33
2022-12-15T07:45:53.518Z,37.97
2022-12-15T07:50:47.417Z,35.17
2022-12-15T07:56:09.942Z,37.30
2022-12-15T08:01:05.395Z,42.70
2022-12-15T08:06:03.780Z,38.30
2022-12-15T08:10:57.608Z,38.93
2022-12-15T08:15:58.201Z,42.17
2022-12-15T08:20:51.624Z,36.70
2022-12-15T08:25:53.690Z,43.93
2022-12-15T08:30:47.275Z,45.13
2022-12-15T08:35:56.373Z,51.10
2022-12-15T08:40:50.811Z,45.40
2022-12-15T08:45:44.521Z,40.47
2022-12-15T08:50:37.873Z,41.53
2022-12-15T08:55:35.525Z,36.27
2022-12-15T09:00:28.877Z,35.50
2022-12-15T09:05:25.594Z,34.33
2022-12-15T09:10:19.123Z,38.17
2022-12-15T09:15:15.423Z,35.63
2022-12-15T09:20:17.788Z,40.13
2022-12-15T09:25:12.054Z,34.87
2022-12-15T09:30:06.869Z,33.07
2022-12-15T09:35:01.959Z,45.53
2022-12-15T09:39:55.977Z,35.53
2022-12-15T09:44:51.074Z,29.97
2022-12-15T09:49:54.739Z,30.47
2022-12-15T09:54:49.782Z,36.80
2022-12-15T10:00:05.398Z,32.23
2022-12-15T10:05:12.760Z,32.33
2022-12-15T10:10:26.046Z,28.80
2022-12-15T10:15:26.788Z,27.43
2022-12-15T10:25:30.106Z,28.33
2022-12-15T10:30:24.179Z,27.30
2022-12-15T10:35:19.511Z,28.27
2022-12-15T10:40:19.214Z,27.30
2022-12-15T10:45:33.328Z,23.63
2022-12-15T10:50:27.737Z,28.63
2022-12-15T10:55:39.037Z,27.03
2022-12-15T11:00:34.673Z,25.40
2022-12-15T11:05:28.672Z,23.30
2022-12-15T11:10:26.166Z,25.30
2022-12-15T11:15:40.853Z,24.00
2022-12-15T11:20:39.818Z,23.77
2022-12-15T11:25:40.423Z,23.40
2022-12-15T11:35:59.005Z,19.40
2022-12-15T11:40:57.776Z,17.00
2022-12-15T11:46:03.395Z,17.10
2022-12-15T11:51:02.393Z,16.93
2022-12-15T11:56:21.778Z,14.53
2022-12-15T12:01:33.281Z,22.73
2022-12-15T12:06:38.916Z,17.10
2022-12-15T12:11:41.604Z,15.17
2022-12-15T12:16:42.041Z,20.57
2022-12-15T12:21:47.320Z,13.05
2022-12-15T12:26:50.134Z,15.10
2022-12-15T12:32:03.863Z,14.73
2022-12-15T12:37:16.071Z,15.50
2022-12-15T12:42:16.321Z,19.87
2022-12-15T12:47:18.101Z,17.10
2022-12-15T12:52:23.454Z,17.63
2022-12-15T12:57:39.147Z,18.70
2022-12-15T13:03:00.320Z,24.03
2022-12-15T13:07:58.611Z,17.52
2022-12-15T13:12:54.161Z,16.40
2022-12-15T13:17:55.677Z,16.03
2022-12-15T13:22:52.099Z,17.60
2022-12-15T13:27:53.799Z,31.03
2022-12-15T13:32:52.479Z,28.77
2022-12-15T13:37:52.753Z,31.27
2022-12-15T13:42:57.851Z,16.45
2022-12-15T13:47:57.644Z,17.40
2022-12-15T13:58:17.687Z,18.83
2022-12-15T14:03:15.325Z,24.67
2022-12-15T14:08:14.343Z,25.77
2022-12-15T14:13:16.087Z,25.80
2022-12-15T14:18:30.328Z,24.07
2022-12-15T14:23:25.684Z,25.60
2022-12-15T14:28:30.042Z,23.50
2022-12-15T14:33:28.066Z,19.90
2022-12-15T14:38:27.968Z,36.13
2022-12-15T14:43:26.153Z,62.00
2022-12-15T14:53:44.038Z,37.47
2022-12-15T14:58:40.913Z,56.27
2022-12-15T15:03:10.263Z,104.73
2022-12-15T15:03:40.280Z,27.77
2022-12-15T15:08:36.569Z,48.90
2022-12-15T15:13:40.180Z,32.93
2022-12-15T15:18:34.813Z,49.00
2022-12-15T15:23:29.713Z,28.70
2022-12-15T15:28:26.184Z,49.93
2022-12-15T15:33:20.213Z,31.50
2022-12-15T15:38:20.196Z,38.60
2022-12-15T15:43:17.113Z,35.10
2022-12-15T15:48:16.057Z,26.07
2022-12-15T15:53:14.040Z,38.23
2022-12-15T15:58:12.497Z,39.90
2022-12-15T16:03:07.386Z,31.23
2022-12-15T16:08:02.589Z,45.73
2022-12-15T16:12:58.440Z,38.10
2022-12-15T16:17:51.867Z,37.70
2022-12-15T16:22:50.220Z,46.93
2022-12-15T16:27:43.622Z,31.20
2022-12-15T16:32:37.041Z,32.53
2022-12-15T16:37:34.810Z,30.00
2022-12-15T16:42:32.533Z,28.40
2022-12-15T16:47:33.325Z,31.80
2022-12-15T16:52:26.962Z,24.93
2022-12-15T16:57:20.733Z,29.07
2022-12-15T17:02:27.201Z,31.87
2022-12-15T17:07:21.214Z,49.03
2022-12-15T17:12:35.242Z,49.53
2022-12-15T17:17:40.784Z,38.20
2022-12-15T17:22:35.278Z,30.20
2022-12-15T17:27:31.826Z,48.33
2022-12-15T17:32:26.982Z,65.90
2022-12-15T17:37:22.590Z,32.97
2022-12-15T17:42:19.797Z,26.07
2022-12-15T17:47:13.663Z,23.80
2022-12-15T17:52:14.920Z,25.13
2022-12-15T17:57:13.832Z,24.90
2022-12-15T18:02:27.256Z,28.53
2022-12-15T18:07:24.241Z,29.10
2022-12-15T18:12:21.718Z,28.63
2022-12-15T18:17:18.664Z,30.10
2022-12-15T18:22:14.714Z,31.23
2022-12-15T18:27:22.024Z,30.20
2022-12-15T18:32:15.538Z,31.60
2022-12-15T18:37:16.296Z,39.40
2022-12-15T18:42:14.902Z,33.33
2022-12-15T18:47:16.759Z,34.67
2022-12-15T18:52:14.934Z,49.70
2022-12-15T18:57:28.680Z,38.10
2022-12-15T19:02:23.574Z,44.80
2022-12-15T19:07:19.627Z,51.70
2022-12-15T19:12:19.190Z,42.50
2022-12-15T19:17:31.474Z,35.13
2022-12-15T19:22:29.987Z,44.37
2022-12-15T19:27:26.419Z,58.70
2022-12-15T19:32:20.080Z,50.43
2022-12-15T19:37:24.149Z,72.97
2022-12-15T19:42:21.871Z,68.33
2022-12-15T19:47:17.248Z,58.90
2022-12-15T19:52:15.145Z,45.90
2022-12-15T19:57:15.509Z,41.33
2022-12-15T20:02:20.873Z,59.80
2022-12-15T20:07:20.601Z,62.70
2022-12-15T20:12:22.657Z,56.63
2022-12-15T20:17:18.149Z,56.93
2022-12-15T20:22:16.068Z,61.30
2022-12-15T20:27:14.340Z,52.97
2022-12-15T20:32:15.354Z,41.00
2022-12-15T20:37:19.097Z,36.13
2022-12-15T20:42:18.934Z,45.20
2022-12-15T20:47:20.200Z,46.95
2022-12-15T20:52:20.924Z,38.43
2022-12-15T20:57:14.217Z,26.70
2022-12-15T21:02:18.810Z,29.57
2022-12-15T21:07:12.657Z,28.50
2022-12-15T21:12:17.500Z,23.97
2022-12-15T21:17:15.338Z,28.83
2022-12-15T21:22:18.730Z,28.80
2022-12-15T21:27:15.149Z,26.77
2022-12-15T21:32:08.419Z,29.87
2022-12-15T21:37:03.506Z,28.80
2022-12-15T21:41:58.889Z,31.97
2022-12-15T21:46:53.451Z,27.07
2022-12-15T21:51:52.130Z,29.07
2022-12-15T21:56:52.826Z,37.00
2022-12-15T22:01:51.811Z,33.63
2022-12-15T22:06:50.408Z,41.80
2022-12-15T22:11:46.822Z,52.40
2022-12-15T22:16:40.043Z,63.93
2022-12-15T22:21:33.243Z,57.83
2022-12-15T22:26:30.559Z,49.57
2022-12-15T22:31:23.888Z,46.77
2022-12-15T22:36:17.188Z,40.43
2022-12-15T22:41:18.480Z,39.70
2022-12-15T22:46:16.151Z,36.43
2022-12-15T22:51:13.889Z,33.90
2022-12-15T22:56:14.562Z,35.03
2022-12-15T23:06:04.076Z,26.20
2022-12-15T23:11:15.051Z,23.87
2022-12-15T23:21:16.654Z,20.30
2022-12-15T23:26:09.836Z,17.67
2022-12-15T23:31:03.262Z,20.73
2022-12-15T23:35:57.595Z,21.80
2022-12-15T23:40:54.015Z,24.33
2022-12-15T23:45:55.885Z,23.03
2022-12-15T23:50:49.162Z,23.20
2022-12-15T23:55:42.344Z,24.20
